Time;durP1;ratioP1;P1;durP2;ratioP2;P2;SDS_P1;SDS_P2;PMS_P1;PMS_P2;Temp;Humidity;BMP_temperature;BMP_pressure;BME280_temperature;BME280_humidity;BME280_pressure;Samples;Min_cycle;Max_cycle;Signal;HPM_P1;HPM_P2
2021/07/29 00:02:03;;;;;;;44.20;40.70;;;;;;;14.94;100.00;100873.48;1972643;73;32913;-75
2021/07/29 00:07:28;;;;;;;44.70;41.30;;;;;;;14.87;100.00;100866.67;1972169;73;33392;-75
2021/07/29 00:12:53;;;;;;;46.03;42.63;;;;;;;14.81;100.00;100874.33;1972262;73;32942;-74
2021/07/29 00:24:00;;;;;;;44.60;40.93;;;;;;;14.70;100.00;100876.27;1972088;73;32904;-74
2021/07/29 00:29:25;;;;;;;46.03;42.70;;;;;;;14.70;100.00;100872.08;1972061;73;32907;-74
2021/07/29 00:34:49;;;;;;;43.67;40.57;;;;;;;14.65;100.00;100873.01;1972033;73;33452;-74
2021/07/29 00:40:15;;;;;;;44.13;40.80;;;;;;;14.57;100.00;100877.37;1972088;72;33487;-73
2021/07/29 00:45:40;;;;;;;46.47;42.97;;;;;;;14.51;100.00;100880.00;1971850;73;33017;-73
2021/07/29 00:51:05;;;;;;;45.27;41.97;;;;;;;14.44;100.00;100880.99;1972114;72;33385;-72
2021/07/29 00:56:31;;;;;;;45.03;41.73;;;;;;;14.43;100.00;100884.09;1971977;73;32924;-74
2021/07/29 01:01:55;;;;;;;44.97;41.40;;;;;;;14.47;100.00;100878.97;1971803;73;32928;-74
2021/07/29 01:07:20;;;;;;;47.73;43.87;;;;;;;14.46;100.00;100881.49;1971974;73;32961;-74
2021/07/29 01:12:44;;;;;;;47.63;44.23;;;;;;;14.56;100.00;100875.70;1971839;73;32983;-75
2021/07/29 01:18:09;;;;;;;46.93;43.50;;;;;;;14.34;100.00;100873.34;1971982;73;32975;-74
2021/07/29 01:23:33;;;;;;;45.63;42.20;;;;;;;14.38;100.00;100877.20;1971823;73;32976;-74
2021/07/29 01:28:59;;;;;;;45.83;41.63;;;;;;;14.32;100.00;100884.84;1971875;73;32963;-74
2021/07/29 01:34:25;;;;;;;47.90;44.10;;;;;;;14.36;100.00;100894.86;1971897;73;32978;-76
2021/07/29 01:39:49;;;;;;;49.40;45.47;;;;;;;14.26;100.00;100897.24;1970527;73;33463;-75
2021/07/29 01:45:14;;;;;;;49.03;45.43;;;;;;;14.26;100.00;100904.22;1972183;73;33361;-74
2021/07/29 01:50:39;;;;;;;49.60;45.20;;;;;;;14.13;100.00;100905.03;1972163;73;33521;-74
2021/07/29 01:56:05;;;;;;;46.60;42.53;;;;;;;14.14;100.00;100910.32;1972026;73;33029;-74
2021/07/29 02:01:31;;;;;;;46.57;43.00;;;;;;;14.18;100.00;100899.92;1971822;73;33480;-74
2021/07/29 02:06:56;;;;;;;46.93;43.10;;;;;;;14.14;100.00;100901.11;1971806;73;32909;-74
2021/07/29 02:12:21;;;;;;;48.87;44.87;;;;;;;14.11;100.00;100904.53;1972033;73;33409;-74
2021/07/29 02:17:46;;;;;;;46.67;43.13;;;;;;;14.07;100.00;100897.34;1971995;73;33460;-74
2021/07/29 02:23:17;;;;;;;47.43;43.37;;;;;;;14.03;100.00;100893.47;1971826;73;32922;-74
2021/07/29 02:28:42;;;;;;;47.73;44.17;;;;;;;14.02;100.00;100903.57;1972086;73;33509;-75
2021/07/29 02:34:07;;;;;;;45.47;42.07;;;;;;;14.00;100.00;100905.83;1971835;73;32903;-74
2021/07/29 02:39:31;;;;;;;48.37;44.77;;;;;;;13.93;100.00;100909.59;1972116;73;33479;-73
2021/07/29 02:44:58;;;;;;;48.07;44.10;;;;;;;13.99;100.00;100903.59;1971986;73;33505;-74
2021/07/29 02:50:22;;;;;;;47.60;43.87;;;;;;;13.97;100.00;100902.27;1971893;73;33630;-74
2021/07/29 02:55:47;;;;;;;47.60;44.00;;;;;;;13.95;100.00;100903.12;1972037;73;33460;-74
2021/07/29 03:01:31;;;;;;;47.27;43.53;;;;;;;13.84;100.00;100905.28;2016194;71;32821;-73
2021/07/29 03:06:58;;;;;;;47.83;44.23;;;;;;;13.85;100.00;100900.53;1972004;73;33486;-74
2021/07/29 03:12:21;;;;;;;47.37;43.70;;;;;;;13.83;100.00;100906.41;1971845;73;33370;-74
2021/07/29 03:17:46;;;;;;;48.27;44.70;;;;;;;13.88;100.00;100917.49;1971889;72;32973;-74
2021/07/29 03:23:11;;;;;;;47.70;44.10;;;;;;;13.88;100.00;100908.28;1971913;73;33056;-75
2021/07/29 03:28:35;;;;;;;49.17;45.30;;;;;;;13.83;100.00;100912.55;1971836;73;32901;-74
2021/07/29 03:34:00;;;;;;;47.57;44.03;;;;;;;13.85;100.00;100915.88;1971972;73;33384;-73
2021/07/29 03:39:24;;;;;;;47.83;43.70;;;;;;;13.89;100.00;100918.33;1972170;73;33384;-72
2021/07/29 03:44:49;;;;;;;48.50;44.87;;;;;;;13.90;100.00;100922.22;1972068;73;33509;-74
2021/07/29 03:50:13;;;;;;;46.70;43.27;;;;;;;13.92;100.00;100932.50;1971895;73;32934;-74
2021/07/29 03:55:38;;;;;;;50.83;46.70;;;;;;;13.84;100.00;100930.41;1972041;73;33534;-74
2021/07/29 04:01:05;;;;;;;50.87;47.07;;;;;;;13.90;100.00;100928.37;1940937;73;39759;-74
2021/07/29 04:06:29;;;;;;;46.80;42.67;;;;;;;13.86;100.00;100935.11;1972082;73;33426;-74
2021/07/29 04:11:53;;;;;;;48.13;43.93;;;;;;;13.87;100.00;100925.59;1971866;73;32923;-74
2021/07/29 04:17:18;;;;;;;46.77;42.97;;;;;;;13.82;100.00;100926.28;1972048;73;33402;-74
2021/07/29 04:22:42;;;;;;;46.80;43.10;;;;;;;13.84;100.00;100928.18;1972043;73;33397;-74
2021/07/29 04:28:07;;;;;;;49.00;44.70;;;;;;;13.94;100.00;100943.38;1971833;73;32965;-74
2021/07/29 04:33:31;;;;;;;46.60;42.47;;;;;;;13.88;100.00;100948.77;1971913;73;33011;-74
2021/07/29 04:38:56;;;;;;;48.83;44.63;;;;;;;13.96;100.00;100957.28;1971825;73;33405;-74
2021/07/29 04:44:21;;;;;;;48.03;44.03;;;;;;;13.91;100.00;100952.34;1971791;73;32965;-74
2021/07/29 04:50:05;;;;;;;48.47;44.07;;;;;;;13.98;100.00;100957.82;2016129;71;33348;-75
2021/07/29 04:55:30;;;;;;;49.37;45.17;;;;;;;14.05;100.00;100951.27;1972187;73;33013;-74
2021/07/29 05:01:02;;;;;;;48.67;44.50;;;;;;;14.08;100.00;100956.23;1971870;73;32993;-74
2021/07/29 05:06:26;;;;;;;49.90;45.83;;;;;;;14.11;100.00;100957.60;1972280;73;33446;-74
2021/07/29 05:11:51;;;;;;;47.50;43.57;;;;;;;14.22;100.00;100968.01;1972069;72;33447;-72
2021/07/29 05:17:15;;;;;;;49.10;44.97;;;;;;;14.22;100.00;100970.23;1971857;73;32952;-74
2021/07/29 05:22:40;;;;;;;48.00;43.80;;;;;;;14.27;100.00;100980.50;1959800;71;32918;-72
2021/07/29 05:28:07;;;;;;;47.60;43.47;;;;;;;14.31;100.00;100974.55;1972037;73;33009;-72
2021/07/29 05:33:32;;;;;;;48.83;44.77;;;;;;;14.36;100.00;100980.92;1971953;73;32959;-73
2021/07/29 05:38:57;;;;;;;47.23;43.20;;;;;;;14.43;100.00;100981.91;1972160;73;33466;-75
2021/07/29 05:44:22;;;;;;;46.60;42.50;;;;;;;14.47;100.00;100986.57;1972228;73;33555;-75
2021/07/29 05:49:46;;;;;;;47.23;43.23;;;;;;;14.52;100.00;100983.69;1972144;73;32991;-73
2021/07/29 05:55:12;;;;;;;52.47;48.23;;;;;;;14.61;100.00;100988.00;1972086;73;33392;-74
2021/07/29 06:00:37;;;;;;;52.33;48.63;;;;;;;14.65;100.00;100988.20;1972101;73;33550;-75
2021/07/29 06:06:02;;;;;;;52.13;48.13;;;;;;;14.76;100.00;100991.08;1971860;73;32888;-74
2021/07/29 06:11:27;;;;;;;54.60;50.50;;;;;;;14.78;100.00;100992.41;1971937;73;32906;-76
2021/07/29 06:16:52;;;;;;;53.53;49.37;;;;;;;14.95;100.00;101007.17;1972142;73;33485;-75
2021/07/29 06:22:17;;;;;;;53.57;49.50;;;;;;;14.96;100.00;101001.84;1971951;73;32892;-75
2021/07/29 06:27:44;;;;;;;52.53;48.63;;;;;;;15.08;100.00;101009.71;1972031;73;32899;-72
2021/07/29 06:33:09;;;;;;;54.33;50.37;;;;;;;15.04;100.00;101012.31;1972173;73;33036;-77
2021/07/29 06:38:34;;;;;;;53.07;49.33;;;;;;;15.10;100.00;101025.06;1972170;73;33465;-76
2021/07/29 06:44:01;;;;;;;55.20;51.30;;;;;;;15.21;100.00;101029.30;1972115;72;33510;-77
2021/07/29 06:49:31;;;;;;;59.03;54.77;;;;;;;15.27;100.00;101021.63;1972036;73;33431;-74
2021/07/29 06:54:55;;;;;;;44.23;40.83;;;;;;;15.32;100.00;101028.50;1972150;72;33418;-74
2021/07/29 07:00:20;;;;;;;46.27;42.97;;;;;;;15.43;100.00;101036.38;1971982;73;33034;-76
2021/07/29 07:05:47;;;;;;;47.60;44.10;;;;;;;15.60;100.00;101031.56;1972173;73;32904;-76
2021/07/29 07:11:17;;;;;;;46.40;43.10;;;;;;;15.62;100.00;101020.02;1972327;73;33457;-75
2021/07/29 07:16:42;;;;;;;44.43;41.30;;;;;;;15.70;100.00;101027.70;1971928;73;33018;-75
2021/07/29 07:22:08;;;;;;;44.30;41.17;;;;;;;15.83;100.00;101024.84;1971984;73;33001;-75
2021/07/29 07:27:32;;;;;;;42.67;39.47;;;;;;;15.99;100.00;101033.73;1971822;73;32980;-76
2021/07/29 07:32:58;;;;;;;42.57;39.47;;;;;;;16.10;100.00;101035.12;1971894;73;33485;-75
2021/07/29 07:38:23;;;;;;;45.37;42.13;;;;;;;16.17;100.00;101038.91;1972081;73;32979;-75
2021/07/29 07:43:47;;;;;;;41.03;38.03;;;;;;;16.47;100.00;101049.34;1972018;73;33471;-74
2021/07/29 07:49:12;;;;;;;41.67;38.63;;;;;;;16.71;100.00;101040.59;1971810;73;33023;-76
2021/07/29 07:54:39;;;;;;;39.50;36.50;;;;;;;17.07;100.00;101031.43;1972084;73;33386;-70
2021/07/29 08:00:05;;;;;;;37.67;34.67;;;;;;;17.45;100.00;101032.31;1972022;73;32978;-71
2021/07/29 08:05:29;;;;;;;36.97;34.10;;;;;;;17.63;100.00;101031.20;1972092;73;33512;-71
2021/07/29 08:10:54;;;;;;;37.17;34.23;;;;;;;17.97;100.00;101032.64;1971939;73;30930;-76
2021/07/29 08:16:19;;;;;;;33.43;31.00;;;;;;;18.20;100.00;101035.53;1972097;73;33474;-76
2021/07/29 08:21:43;;;;;;;34.60;32.30;;;;;;;18.43;100.00;101034.77;1964705;71;30969;-75
2021/07/29 08:27:08;;;;;;;32.53;30.47;;;;;;;18.68;100.00;101025.22;1972101;73;33501;-76
2021/07/29 08:32:32;;;;;;;33.60;31.50;;;;;;;18.86;100.00;101037.52;1971954;73;30937;-75
2021/07/29 08:37:58;;;;;;;33.40;30.83;;;;;;;19.29;100.00;101042.12;1972081;73;31452;-73
2021/07/29 08:43:22;;;;;;;31.87;29.90;;;;;;;19.26;100.00;101045.02;1971893;73;31179;-74
2021/07/29 08:48:49;;;;;;;30.53;28.47;;;;;;;19.16;100.00;101044.02;1972063;73;30929;-72
2021/07/29 08:54:16;;;;;;;31.43;29.13;;;;;;;19.13;100.00;101050.87;1972011;73;30937;-74
2021/07/29 08:59:40;;;;;;;29.37;27.57;;;;;;;19.50;100.00;101045.27;1971927;73;31007;-74
2021/07/29 09:05:21;;;;;;;32.10;30.33;;;;;;;19.29;100.00;101044.37;1972208;73;31511;-70
2021/07/29 09:10:59;;;;;;;31.70;29.90;;;;;;;19.29;100.00;101044.95;1971920;73;30923;-71
2021/07/29 09:16:23;;;;;;;33.73;31.90;;;;;;;19.55;100.00;101045.05;1971927;73;30930;-72
2021/07/29 09:24:43;;;;;;;25.23;23.50;;;;;;;20.11;100.00;101045.64;2061364;69;31068;-73
2021/07/29 09:27:13;;;;;;;26.50;25.00;;;;;;;20.03;100.00;101048.53;2030214;70;24106;-73
2021/07/29 09:29:43;;;;;;;26.33;24.87;;;;;;;20.14;100.00;101039.91;2030606;71;24636;-73
2021/07/29 09:32:16;;;;;;;30.13;28.23;;;;;;;20.15;100.00;101040.95;1950628;73;24183;-73
2021/07/29 09:34:47;;;;;;;25.80;24.43;;;;;;;20.33;100.00;101049.55;2030901;71;24104;-73
2021/07/29 09:37:32;;;;;;;28.67;26.97;;;;;;;20.02;100.00;101054.78;1950670;73;24141;-76
2021/07/29 09:40:26;;;;;;;26.83;25.43;;;;;;;19.93;100.00;101052.03;1931345;73;24180;-74
2021/07/29 09:46:24;;;;;;;25.57;24.10;;;;;;;20.01;100.00;101041.84;1971824;72;30967;-74
2021/07/29 09:52:06;;;;;;;25.03;23.73;;;;;;;20.03;100.00;101045.71;1971788;73;30944;-72
2021/07/29 09:57:47;;;;;;;26.50;24.87;;;;;;;20.11;100.00;101038.59;1971803;73;31055;-72
2021/07/29 10:03:28;;;;;;;24.03;22.83;;;;;;;20.48;100.00;101037.38;1972056;72;31061;-74
2021/07/29 10:08:57;;;;;;;22.47;21.27;;;;;;;20.31;100.00;101039.20;1972080;73;31512;-71
2021/07/29 10:23:39;;;;;;;23.47;22.27;;;;;;;20.39;100.00;101038.30;2061096;69;30667;-71
2021/07/29 10:26:12;;;;;;;21.17;19.97;;;;;;;20.56;100.00;101033.06;2030147;70;24580;-71
2021/07/29 10:28:42;;;;;;;20.13;19.03;;;;;;;20.58;100.00;101031.31;1950714;73;24117;-72
2021/07/29 10:31:14;;;;;;;20.57;19.47;;;;;;;20.39;100.00;101026.19;2030559;71;24568;-74
2021/07/29 10:33:46;;;;;;;18.63;17.73;;;;;;;20.16;100.00;101039.80;2030651;71;24182;-73
2021/07/29 10:36:44;;;;;;;19.43;18.47;;;;;;;19.89;100.00;101037.55;2030664;71;24174;-74
2021/07/29 10:39:15;;;;;;;18.93;17.93;;;;;;;20.03;100.00;101035.27;1950650;73;24268;-73
2021/07/29 10:41:53;;;;;;;19.00;18.00;;;;;;;20.08;100.00;101031.41;2030622;71;24122;-71
2021/07/29 10:44:48;;;;;;;16.67;15.90;;;;;;;20.30;100.00;101031.08;1950649;73;24183;-74
2021/07/29 10:47:36;;;;;;;18.13;17.23;;;;;;;20.30;100.00;101033.91;2030546;71;24179;-72
2021/07/29 10:50:19;;;;;;;18.87;17.37;;;;;;;20.14;100.00;101030.04;2030724;71;24166;-75
2021/07/29 10:52:54;;;;;;;19.20;18.20;;;;;;;19.95;100.00;101031.93;1950689;73;26685;-71
2021/07/29 10:55:24;;;;;;;21.33;20.33;;;;;;;19.96;100.00;101037.23;2030886;71;24575;-74
2021/07/29 10:58:06;;;;;;;20.83;19.73;;;;;;;20.33;100.00;101043.08;2030741;71;24529;-75
2021/07/29 11:00:35;;;;;;;16.17;15.47;;;;;;;20.55;100.00;101034.23;2030429;70;24178;-74
2021/07/29 11:03:19;;;;;;;17.73;16.90;;;;;;;20.44;100.00;101028.80;1950714;73;24668;-74
2021/07/29 11:05:43;;;;;;;19.07;18.17;;;;;;;20.39;100.00;101041.12;1947418;73;24140;-74
2021/07/29 11:08:14;;;;;;;16.93;16.13;;;;;;;20.33;100.00;101045.31;1950624;73;24607;-72
2021/07/29 11:10:45;;;;;;;15.27;14.67;;;;;;;20.07;100.00;101041.06;1950608;73;24132;-72
2021/07/29 11:13:16;;;;;;;16.70;15.93;;;;;;;19.94;100.00;101042.38;1950596;73;24182;-75
2021/07/29 11:15:46;;;;;;;17.83;16.97;;;;;;;20.03;100.00;101048.53;1950634;73;24199;-72
2021/07/29 11:18:19;;;;;;;17.13;16.27;;;;;;;20.24;100.00;101042.30;1950598;73;24131;-72
2021/07/29 11:20:49;;;;;;;13.87;13.27;;;;;;;20.44;100.00;101038.67;1950604;73;24673;-72
2021/07/29 11:23:36;;;;;;;14.97;14.23;;;;;;;20.37;100.00;101041.20;1993652;71;24365;-75
2021/07/29 11:26:07;;;;;;;15.97;15.27;;;;;;;20.34;100.00;101039.09;1993756;72;26729;-75
2021/07/29 11:28:37;;;;;;;16.30;15.50;;;;;;;20.41;100.00;101034.53;1993742;72;24633;-71
2021/07/29 11:31:07;;;;;;;15.37;14.57;;;;;;;20.63;100.00;101032.48;1993777;72;24680;-75
2021/07/29 11:33:37;;;;;;;13.90;13.30;;;;;;;20.77;100.00;101030.17;1993468;72;24664;-75
2021/07/29 11:36:12;;;;;;;13.80;13.00;;;;;;;20.90;100.00;101033.26;1993117;72;24585;-75
2021/07/29 11:38:42;;;;;;;13.97;13.37;;;;;;;21.01;100.00;101025.17;1993036;72;24188;-71
2021/07/29 11:41:13;;;;;;;13.27;12.57;;;;;;;21.07;100.00;101027.98;1993084;72;24635;-72
2021/07/29 11:46:52;;;;;;;13.33;12.60;;;;;;;20.97;100.00;101017.13;1971918;73;30951;-73
2021/07/29 11:52:17;;;;;;;12.40;11.80;;;;;;;21.05;100.00;101019.84;1972141;73;31052;-71
2021/07/29 11:57:42;;;;;;;12.45;11.75;;;;;;;21.36;100.00;101010.83;1972007;73;31069;-71
2021/07/29 12:03:12;;;;;;;12.00;11.40;;;;;;;21.22;100.00;101006.14;1971957;73;31017;-73
2021/07/29 12:11:31;;;;;;;12.40;11.70;;;;;;;21.08;100.00;101016.34;2061371;69;31157;-72
2021/07/29 12:14:01;;;;;;;12.30;11.60;;;;;;;20.99;100.00;101017.63;1950655;73;24163;-70
2021/07/29 12:16:45;;;;;;;12.28;11.63;;;;;;;21.13;100.00;101005.44;2030792;71;24190;-71
2021/07/29 12:19:17;;;;;;;12.20;11.50;;;;;;;21.29;100.00;101006.37;2030668;70;24101;-72
2021/07/29 12:21:47;;;;;;;12.73;12.13;;;;;;;21.41;100.00;100993.64;2008417;71;24150;-71
2021/07/29 12:24:18;;;;;;;11.53;10.93;;;;;;;21.51;100.00;100997.41;1993745;72;24159;-71
2021/07/29 12:27:09;;;;;;;11.75;11.15;;;;;;;21.47;100.00;100998.47;1993874;72;24636;-75
2021/07/29 12:29:44;;;;;;;12.23;11.37;;;;;;;21.21;100.00;101014.38;1993833;72;24162;-75
2021/07/29 12:35:21;;;;;;;12.00;11.33;;;;;;;21.19;100.00;101007.66;1971951;73;31112;-74
2021/07/29 12:40:53;;;;;;;12.70;12.10;;;;;;;21.37;100.00;101006.00;1971877;73;30953;-71
2021/07/29 12:46:25;;;;;;;11.50;10.93;;;;;;;21.57;100.00;100999.37;1972109;73;31523;-74
2021/07/29 12:51:53;;;;;;;12.20;11.60;;;;;;;21.83;100.00;100998.39;1971955;73;30941;-75
2021/07/29 12:57:18;;;;;;;12.93;12.13;;;;;;;21.79;100.00;101002.52;1971886;73;31210;-71
2021/07/29 13:02:44;;;;;;;12.43;11.68;;;;;;;21.75;100.00;101000.77;1971958;73;30958;-71
2021/07/29 13:08:08;;;;;;;12.55;11.75;;;;;;;21.75;100.00;101003.59;1971977;73;31037;-75
2021/07/29 13:13:35;;;;;;;11.43;10.82;;;;;;;21.61;100.00;100991.25;1971912;72;30954;-72
2021/07/29 13:19:00;;;;;;;11.63;10.93;;;;;;;21.53;100.00;101002.09;1971859;73;30967;-71
2021/07/29 13:24:24;;;;;;;11.67;11.17;;;;;;;21.41;100.00;100997.05;1971835;73;31048;-75
2021/07/29 13:29:49;;;;;;;11.97;11.28;;;;;;;21.44;100.00;100992.92;1971931;73;31031;-74
2021/07/29 13:35:17;;;;;;;11.95;11.40;;;;;;;21.60;100.00;100999.52;1971948;73;31049;-72
2021/07/29 13:40:47;;;;;;;11.73;11.15;;;;;;;21.75;100.00;100990.28;1959920;73;30978;-75
2021/07/29 13:46:15;;;;;;;12.07;11.57;;;;;;;21.73;100.00;100993.25;1971923;73;30945;-74
2021/07/29 13:51:42;;;;;;;12.70;12.03;;;;;;;21.88;100.00;100978.34;1972177;73;31481;-71
2021/07/29 13:57:08;;;;;;;12.85;12.25;;;;;;;21.98;100.00;100983.54;1971972;73;31008;-70
2021/07/29 14:02:35;;;;;;;11.90;11.30;;;;;;;21.99;100.00;100972.42;1972257;73;31535;-74
2021/07/29 14:08:00;;;;;;;12.60;11.80;;;;;;;22.02;100.00;100973.73;1971935;73;31061;-70
2021/07/29 14:13:25;;;;;;;12.37;11.60;;;;;;;22.04;100.00;100975.59;1971977;73;30959;-75
2021/07/29 14:18:54;;;;;;;11.73;11.12;;;;;;;21.86;100.00;100966.58;1971991;72;31035;-72
2021/07/29 14:24:16;;;;;;;12.30;11.50;;;;;;;21.78;100.00;100959.04;1971916;73;31013;-72
2021/07/29 14:29:41;;;;;;;12.30;11.60;;;;;;;22.03;100.00;100958.41;1972182;73;30946;-72
2021/07/29 14:35:09;;;;;;;12.75;11.95;;;;;;;21.87;100.00;100956.89;1972179;73;31005;-73
2021/07/29 14:40:34;;;;;;;13.03;12.30;;;;;;;21.84;100.00;100960.45;1963842;72;31502;-75
2021/07/29 14:51:51;;;;;;;12.37;11.68;;;;;;;22.05;100.00;100953.20;1972137;73;33445;-72
2021/07/29 14:58:04;;;;;;;12.33;11.45;;;;;;;22.09;100.00;100957.78;2016462;71;30861;-74
2021/07/29 16:12:10;;;;;;;12.80;12.00;;;;;;;22.37;100.00;100961.20;1972234;73;31457;-73
2021/07/29 16:17:36;;;;;;;12.58;11.75;;;;;;;22.30;100.00;100966.64;1971980;73;31026;-78
2021/07/29 16:23:03;;;;;;;13.50;12.65;;;;;;;22.30;100.00;100960.98;2069949;69;30790;-76
2021/07/29 16:28:27;;;;;;;13.58;12.75;;;;;;;22.15;100.00;100971.09;1973624;73;31470;-75
2021/07/29 16:33:53;;;;;;;14.60;13.68;;;;;;;22.13;100.00;100975.68;1972298;73;30978;-73
2021/07/29 16:39:18;;;;;;;14.23;13.32;;;;;;;22.13;100.00;100979.10;1972030;73;31077;-75
2021/07/29 16:44:42;;;;;;;14.87;13.93;;;;;;;21.94;100.00;100967.05;1971985;73;30996;-74
2021/07/29 16:50:08;;;;;;;16.10;14.85;;;;;;;21.90;100.00;100966.09;1971900;73;31072;-72
2021/07/29 16:55:33;;;;;;;15.90;14.70;;;;;;;21.80;100.00;100973.07;1972103;73;31587;-76
2021/07/29 17:00:58;;;;;;;15.35;14.25;;;;;;;21.53;100.00;100960.28;1972115;73;30992;-72
2021/07/29 17:06:22;;;;;;;15.57;14.47;;;;;;;21.52;100.00;100960.08;1972113;73;31421;-75
2021/07/29 17:11:47;;;;;;;16.63;15.40;;;;;;;21.17;100.00;100959.77;1971926;73;31086;-72
2021/07/29 17:17:13;;;;;;;16.40;15.20;;;;;;;21.27;100.00;100966.33;1972016;73;30993;-75
2021/07/29 17:22:39;;;;;;;16.47;15.10;;;;;;;21.39;100.00;100964.92;1972022;73;31070;-75
2021/07/29 17:28:07;;;;;;;16.00;14.90;;;;;;;21.41;100.00;100956.90;1971924;73;31083;-75
2021/07/29 17:33:31;;;;;;;16.20;15.08;;;;;;;21.35;100.00;100954.07;1971891;73;31043;-73
2021/07/29 17:38:59;;;;;;;16.35;15.25;;;;;;;20.88;100.00;100963.00;1972115;73;31063;-74
2021/07/29 17:44:22;;;;;;;16.37;15.17;;;;;;;20.83;100.00;100942.08;1972005;73;30971;-74
2021/07/29 17:49:47;;;;;;;16.02;14.93;;;;;;;20.72;100.00;100947.11;1972219;73;31439;-74
2021/07/29 17:55:12;;;;;;;17.03;15.73;;;;;;;20.81;100.00;100943.59;1971907;73;31040;-73
2021/07/29 18:00:38;;;;;;;16.53;15.30;;;;;;;20.74;100.00;100939.95;1971921;73;31139;-74
2021/07/29 18:06:04;;;;;;;16.40;15.27;;;;;;;20.69;100.00;100950.64;1971988;73;30978;-73
2021/07/29 18:11:31;;;;;;;16.90;15.50;;;;;;;20.72;100.00;100940.05;1972039;73;30979;-73
2021/07/29 18:17:04;;;;;;;16.27;15.03;;;;;;;20.96;100.00;100937.27;1972234;73;31447;-73
2021/07/29 18:22:29;;;;;;;15.90;14.73;;;;;;;20.74;100.00;100941.37;1971984;73;31034;-75
2021/07/29 18:27:56;;;;;;;17.23;15.95;;;;;;;20.74;100.00;100927.84;1972059;72;30974;-75
2021/07/29 18:33:20;;;;;;;16.63;15.33;;;;;;;20.68;100.00;100939.94;1972111;73;31030;-75
2021/07/29 18:38:45;;;;;;;16.37;15.17;;;;;;;20.71;100.00;100939.23;1972139;73;31530;-74
2021/07/29 18:44:10;;;;;;;17.50;15.90;;;;;;;20.67;100.00;100930.39;1971947;73;31041;-73
2021/07/29 18:49:37;;;;;;;16.07;14.97;;;;;;;20.58;100.00;100933.94;1971907;73;31069;-75
2021/07/29 18:55:03;;;;;;;16.97;15.70;;;;;;;20.64;100.00;100931.11;1971909;73;30973;-75
2021/07/29 19:00:47;;;;;;;15.53;14.30;;;;;;;20.49;100.00;100939.69;1989420;71;31090;-76
2021/07/29 19:06:11;;;;;;;15.20;14.20;;;;;;;20.10;100.00;100942.48;1972166;73;31034;-73
2021/07/29 19:11:35;;;;;;;14.80;13.73;;;;;;;19.90;100.00;100944.15;1971928;73;31050;-77
2021/07/29 19:17:00;;;;;;;15.43;14.43;;;;;;;19.80;100.00;100947.41;1972044;73;31479;-76
2021/07/29 19:22:25;;;;;;;15.90;14.53;;;;;;;19.79;100.00;100943.52;1961351;71;31069;-75
2021/07/29 19:27:53;;;;;;;15.60;14.40;;;;;;;19.65;100.00;100937.33;1971926;73;30971;-75
2021/07/29 19:33:18;;;;;;;14.67;13.67;;;;;;;19.65;100.00;100930.28;1972143;73;33413;-76
2021/07/29 19:38:43;;;;;;;15.20;14.00;;;;;;;19.60;100.00;100926.25;1972275;73;31034;-75
2021/07/29 19:44:08;;;;;;;14.73;13.63;;;;;;;19.54;100.00;100933.53;1972167;73;33427;-76
2021/07/29 19:49:33;;;;;;;15.47;14.17;;;;;;;19.46;100.00;100930.20;1972180;72;30985;-77
2021/07/29 19:54:58;;;;;;;15.77;14.70;;;;;;;19.43;100.00;100935.09;1972079;73;33448;-76
2021/07/29 20:00:23;;;;;;;15.50;14.50;;;;;;;19.39;100.00;100931.28;1971920;73;31046;-75
2021/07/29 20:05:49;;;;;;;15.30;14.00;;;;;;;19.24;100.00;100926.84;1972143;73;31524;-72
2021/07/29 20:11:13;;;;;;;16.80;15.60;;;;;;;19.10;100.00;100924.28;1971916;73;31040;-72
2021/07/29 20:16:38;;;;;;;16.30;15.20;;;;;;;18.86;100.00;100926.33;1972065;73;30977;-76
2021/07/29 20:22:02;;;;;;;17.53;15.97;;;;;;;18.75;100.00;100920.82;1971896;73;31039;-75
2021/07/29 20:27:27;;;;;;;18.37;17.13;;;;;;;18.64;100.00;100924.61;1971903;73;30969;-75
2021/07/29 20:32:52;;;;;;;19.00;17.77;;;;;;;18.48;100.00;100920.65;1972229;73;31050;-77
2021/07/29 20:38:16;;;;;;;19.37;18.07;;;;;;;18.43;100.00;100925.08;1971992;73;31052;-73
2021/07/29 20:43:41;;;;;;;18.90;17.70;;;;;;;18.32;100.00;100923.77;1972069;73;31527;-73
2021/07/29 20:49:05;;;;;;;19.43;18.23;;;;;;;18.35;100.00;100922.29;1972083;73;30965;-76
2021/07/29 20:54:30;;;;;;;20.23;18.80;;;;;;;18.13;100.00;100927.55;1972123;73;31591;-77
2021/07/29 20:59:54;;;;;;;22.83;21.43;;;;;;;17.99;100.00;100917.08;1972085;73;31450;-76
2021/07/29 21:05:19;;;;;;;26.23;24.73;;;;;;;17.81;100.00;100919.66;1972230;73;30963;-79
2021/07/29 21:10:47;;;;;;;26.10;24.53;;;;;;;17.84;100.00;100908.57;1972202;73;31398;-74
2021/07/29 21:16:11;;;;;;;25.37;23.80;;;;;;;17.96;100.00;100898.08;1972212;73;31513;-79
2021/07/29 21:21:42;;;;;;;26.07;24.33;;;;;;;17.95;100.00;100896.41;1972084;71;31074;-74
2021/07/29 21:27:07;;;;;;;27.00;25.17;;;;;;;17.84;100.00;100892.31;1971936;73;30969;-74
2021/07/29 21:32:35;;;;;;;29.30;27.50;;;;;;;17.88;100.00;100889.08;1972104;73;31497;-75
2021/07/29 21:37:59;;;;;;;28.77;27.07;;;;;;;17.82;100.00;100887.02;1971861;73;31042;-74
2021/07/29 21:43:22;;;;;;;31.53;29.40;;;;;;;17.84;100.00;100877.66;1971957;73;30935;-75
2021/07/29 21:48:47;;;;;;;31.17;29.33;;;;;;;17.69;100.00;100876.21;1971908;73;31518;-75
2021/07/29 21:54:11;;;;;;;34.03;31.70;;;;;;;17.63;100.00;100864.89;1972214;73;31075;-72
2021/07/29 21:59:35;;;;;;;33.80;31.43;;;;;;;17.67;100.00;100856.03;1972054;73;31413;-75
2021/07/29 22:05:00;;;;;;;34.10;31.90;;;;;;;17.66;100.00;100842.34;1971955;73;31010;-74
2021/07/29 22:10:26;;;;;;;37.27;34.83;;;;;;;17.41;100.00;100851.02;1972046;73;33433;-75
2021/07/29 22:15:52;;;;;;;37.03;34.30;;;;;;;17.51;100.00;100842.23;1971991;73;31022;-75
2021/07/29 22:21:16;;;;;;;38.93;36.23;;;;;;;17.35;100.00;100842.50;1972110;73;31098;-75
2021/07/29 22:26:40;;;;;;;40.27;37.27;;;;;;;17.45;100.00;100835.73;1972155;73;31578;-73
2021/07/29 22:32:07;;;;;;;42.13;38.77;;;;;;;17.34;100.00;100834.39;1972235;73;31456;-72
2021/07/29 22:37:33;;;;;;;42.53;39.17;;;;;;;17.36;100.00;100828.72;1972294;73;30959;-73
2021/07/29 22:42:58;;;;;;;41.47;38.27;;;;;;;17.44;100.00;100821.44;1972186;73;31466;-74
2021/07/29 22:48:22;;;;;;;42.03;38.63;;;;;;;17.42;100.00;100825.14;1971919;73;31045;-73
2021/07/29 22:53:47;;;;;;;42.50;39.17;;;;;;;17.40;100.00;100805.83;1972184;73;31519;-72
2021/07/29 22:59:13;;;;;;;40.37;37.37;;;;;;;17.28;100.00;100808.48;1972193;73;33393;-73
2021/07/29 23:04:38;;;;;;;41.07;37.97;;;;;;;17.32;100.00;100813.69;1971853;73;31036;-74
2021/07/29 23:10:02;;;;;;;42.10;39.00;;;;;;;17.39;100.00;100798.56;1972171;73;33492;-71
2021/07/29 23:15:27;;;;;;;44.87;41.47;;;;;;;17.26;100.00;100798.16;1971910;73;33014;-71
2021/07/29 23:20:53;;;;;;;45.97;42.47;;;;;;;17.30;100.00;100791.55;1972104;72;31608;-71
2021/07/29 23:32:00;;;;;;;45.20;41.80;;;;;;;17.32;100.00;100783.38;1971974;73;31049;-75
2021/07/29 23:37:26;;;;;;;46.93;42.97;;;;;;;17.30;100.00;100775.28;1971948;73;33418;-75
2021/07/29 23:42:54;;;;;;;46.43;42.57;;;;;;;17.38;100.00;100771.63;1971924;73;31051;-75
2021/07/29 23:48:19;;;;;;;47.13;43.33;;;;;;;17.30;100.00;100754.22;1972002;73;32982;-72
2021/07/29 23:53:44;;;;;;;47.80;43.77;;;;;;;17.26;100.00;100758.85;1971905;73;33103;-75
2021/07/29 23:59:12;;;;;;;46.33;42.40;;;;;;;17.22;100.00;100743.26;1971868;73;32911;-74
